sensor_id;sensor_type;location;lat;lon;timestamp;pressure;altitude;pressure_sealevel;temperature;humidity
15670;BME280;18524;45.190;5.732;2023-03-03T00:00:05;99296.28;;;8.05;60.75
15670;BME280;18524;45.190;5.732;2023-03-03T00:04:56;99301.19;;;7.97;61.16
15670;BME280;18524;45.190;5.732;2023-03-03T00:09:46;99304.44;;;8.00;60.86
15670;BME280;18524;45.190;5.732;2023-03-03T00:14:37;99298.91;;;8.05;60.78
15670;BME280;18524;45.190;5.732;2023-03-03T00:19:31;99292.53;;;7.83;61.17
15670;BME280;18524;45.190;5.732;2023-03-03T00:24:36;99304.06;;;7.79;61.04
15670;BME280;18524;45.190;5.732;2023-03-03T00:29:35;99304.06;;;7.79;61.08
15670;BME280;18524;45.190;5.732;2023-03-03T00:34:27;99305.53;;;7.71;61.99
15670;BME280;18524;45.190;5.732;2023-03-03T00:39:30;99304.19;;;7.78;61.19
15670;BME280;18524;45.190;5.732;2023-03-03T00:44:43;99315.44;;;7.66;61.83
15670;BME280;18524;45.190;5.732;2023-03-03T00:49:33;99311.56;;;7.59;61.91
15670;BME280;18524;45.190;5.732;2023-03-03T00:54:24;99313.34;;;7.58;61.65
15670;BME280;18524;45.190;5.732;2023-03-03T00:59:14;99311.97;;;7.52;62.41
15670;BME280;18524;45.190;5.732;2023-03-03T01:04:04;99314.47;;;7.54;62.67
15670;BME280;18524;45.190;5.732;2023-03-03T01:08:55;99319.00;;;7.38;63.26
15670;BME280;18524;45.190;5.732;2023-03-03T01:13:47;99323.47;;;7.36;63.01
15670;BME280;18524;45.190;5.732;2023-03-03T01:18:39;99320.13;;;7.34;63.61
15670;BME280;18524;45.190;5.732;2023-03-03T01:23:30;99329.75;;;7.33;63.18
15670;BME280;18524;45.190;5.732;2023-03-03T01:28:21;99324.72;;;7.30;63.47
15670;BME280;18524;45.190;5.732;2023-03-03T01:33:11;99335.25;;;7.29;63.16
15670;BME280;18524;45.190;5.732;2023-03-03T01:38:02;99324.13;;;7.39;63.05
15670;BME280;18524;45.190;5.732;2023-03-03T01:42:53;99327.97;;;7.34;63.52
15670;BME280;18524;45.190;5.732;2023-03-03T01:48:02;99323.94;;;7.15;64.93
15670;BME280;18524;45.190;5.732;2023-03-03T01:52:54;99329.69;;;7.20;64.01
15670;BME280;18524;45.190;5.732;2023-03-03T01:57:55;99325.03;;;7.26;63.96
15670;BME280;18524;45.190;5.732;2023-03-03T02:02:48;99317.00;;;7.29;63.71
15670;BME280;18524;45.190;5.732;2023-03-03T02:07:38;99332.16;;;7.36;63.69
15670;BME280;18524;45.190;5.732;2023-03-03T02:12:37;99324.03;;;7.41;63.57
15670;BME280;18524;45.190;5.732;2023-03-03T02:17:27;99331.13;;;7.39;63.91
15670;BME280;18524;45.190;5.732;2023-03-03T02:22:29;99329.63;;;7.35;63.68
15670;BME280;18524;45.190;5.732;2023-03-03T02:27:20;99327.22;;;7.32;63.88
15670;BME280;18524;45.190;5.732;2023-03-03T02:32:10;99327.75;;;7.37;64.05
15670;BME280;18524;45.190;5.732;2023-03-03T02:37:02;99314.19;;;7.32;63.36
15670;BME280;18524;45.190;5.732;2023-03-03T02:47:19;99311.63;;;7.17;64.54
15670;BME280;18524;45.190;5.732;2023-03-03T02:52:10;99305.88;;;7.12;65.05
15670;BME280;18524;45.190;5.732;2023-03-03T02:57:02;99320.41;;;7.16;64.78
15670;BME280;18524;45.190;5.732;2023-03-03T03:01:53;99312.91;;;7.25;64.28
15670;BME280;18524;45.190;5.732;2023-03-03T03:06:44;99322.59;;;7.22;64.91
15670;BME280;18524;45.190;5.732;2023-03-03T03:11:35;99332.34;;;7.33;64.43
15670;BME280;18524;45.190;5.732;2023-03-03T03:16:25;99327.34;;;7.30;64.30
15670;BME280;18524;45.190;5.732;2023-03-03T03:21:16;99332.22;;;7.22;64.42
15670;BME280;18524;45.190;5.732;2023-03-03T03:26:07;99335.34;;;7.27;64.82
15670;BME280;18524;45.190;5.732;2023-03-03T03:30:57;99336.19;;;7.28;64.98
15670;BME280;18524;45.190;5.732;2023-03-03T03:35:48;99335.84;;;7.19;64.67
15670;BME280;18524;45.190;5.732;2023-03-03T03:40:39;99334.28;;;7.17;64.84
15670;BME280;18524;45.190;5.732;2023-03-03T03:45:30;99333.97;;;7.21;64.72
15670;BME280;18524;45.190;5.732;2023-03-03T03:50:21;99340.13;;;7.20;65.19
15670;BME280;18524;45.190;5.732;2023-03-03T03:55:11;99340.66;;;7.26;65.22
15670;BME280;18524;45.190;5.732;2023-03-03T04:00:04;99334.91;;;7.20;64.53
15670;BME280;18524;45.190;5.732;2023-03-03T04:04:54;99334.47;;;7.14;65.01
15670;BME280;18524;45.190;5.732;2023-03-03T04:09:44;99333.84;;;7.10;65.28
15670;BME280;18524;45.190;5.732;2023-03-03T04:14:35;99335.50;;;7.11;65.58
15670;BME280;18524;45.190;5.732;2023-03-03T04:19:25;99334.56;;;7.12;65.40
15670;BME280;18524;45.190;5.732;2023-03-03T04:24:16;99344.25;;;7.10;65.71
15670;BME280;18524;45.190;5.732;2023-03-03T04:29:06;99347.22;;;7.04;65.82
15670;BME280;18524;45.190;5.732;2023-03-03T04:33:57;99344.34;;;7.09;65.98
15670;BME280;18524;45.190;5.732;2023-03-03T04:38:47;99345.19;;;7.09;66.20
15670;BME280;18524;45.190;5.732;2023-03-03T04:43:38;99349.47;;;7.10;65.84
15670;BME280;18524;45.190;5.732;2023-03-03T04:48:28;99349.53;;;7.23;65.70
15670;BME280;18524;45.190;5.732;2023-03-03T04:53:19;99343.63;;;7.34;65.49
15670;BME280;18524;45.190;5.732;2023-03-03T04:58:10;99347.13;;;7.20;66.43
15670;BME280;18524;45.190;5.732;2023-03-03T05:03:00;99347.13;;;7.20;66.25
15670;BME280;18524;45.190;5.732;2023-03-03T05:07:50;99350.50;;;7.35;65.42
15670;BME280;18524;45.190;5.732;2023-03-03T05:12:41;99350.06;;;7.28;65.67
15670;BME280;18524;45.190;5.732;2023-03-03T05:17:32;99350.47;;;7.22;65.49
15670;BME280;18524;45.190;5.732;2023-03-03T05:22:23;99351.50;;;7.19;65.44
15670;BME280;18524;45.190;5.732;2023-03-03T05:27:15;99356.38;;;7.11;66.12
15670;BME280;18524;45.190;5.732;2023-03-03T05:32:05;99352.81;;;7.12;66.44
15670;BME280;18524;45.190;5.732;2023-03-03T05:36:56;99353.56;;;7.14;66.59
15670;BME280;18524;45.190;5.732;2023-03-03T05:41:46;99355.59;;;7.24;65.66
15670;BME280;18524;45.190;5.732;2023-03-03T05:46:36;99345.97;;;7.24;66.16
15670;BME280;18524;45.190;5.732;2023-03-03T05:51:27;99342.34;;;7.27;65.62
15670;BME280;18524;45.190;5.732;2023-03-03T05:56:17;99351.06;;;7.40;64.96
15670;BME280;18524;45.190;5.732;2023-03-03T06:01:08;99350.69;;;7.46;65.08
15670;BME280;18524;45.190;5.732;2023-03-03T06:05:58;99360.91;;;7.49;65.24
15670;BME280;18524;45.190;5.732;2023-03-03T06:10:49;99349.13;;;7.56;65.02
15670;BME280;18524;45.190;5.732;2023-03-03T06:15:39;99363.13;;;7.55;65.22
15670;BME280;18524;45.190;5.732;2023-03-03T06:20:30;99374.59;;;7.52;65.46
15670;BME280;18524;45.190;5.732;2023-03-03T06:25:21;99370.16;;;7.40;65.73
15670;BME280;18524;45.190;5.732;2023-03-03T06:30:11;99372.94;;;7.51;64.72
15670;BME280;18524;45.190;5.732;2023-03-03T06:35:03;99387.31;;;7.44;65.03
15670;BME280;18524;45.190;5.732;2023-03-03T06:39:54;99395.22;;;7.43;65.24
15670;BME280;18524;45.190;5.732;2023-03-03T06:44:44;99393.69;;;7.26;67.23
15670;BME280;18524;45.190;5.732;2023-03-03T06:49:34;99396.97;;;7.15;68.11
15670;BME280;18524;45.190;5.732;2023-03-03T06:54:28;99404.22;;;6.68;70.59
15670;BME280;18524;45.190;5.732;2023-03-03T06:59:20;99414.75;;;6.52;72.71
15670;BME280;18524;45.190;5.732;2023-03-03T07:04:28;99415.22;;;6.44;73.70
15670;BME280;18524;45.190;5.732;2023-03-03T07:09:24;99414.28;;;6.59;73.64
15670;BME280;18524;45.190;5.732;2023-03-03T07:14:17;99419.13;;;6.66;73.57
15670;BME280;18524;45.190;5.732;2023-03-03T07:19:20;99416.69;;;6.34;75.16
15670;BME280;18524;45.190;5.732;2023-03-03T07:24:25;99417.34;;;6.52;74.78
15670;BME280;18524;45.190;5.732;2023-03-03T07:29:26;99424.66;;;6.31;76.51
15670;BME280;18524;45.190;5.732;2023-03-03T07:34:41;99424.66;;;6.31;76.88
15670;BME280;18524;45.190;5.732;2023-03-03T07:39:35;99422.66;;;6.36;75.99
15670;BME280;18524;45.190;5.732;2023-03-03T07:44:34;99434.38;;;6.57;75.31
15670;BME280;18524;45.190;5.732;2023-03-03T07:54:35;99434.31;;;6.73;73.59
15670;BME280;18524;45.190;5.732;2023-03-03T07:59:27;99439.03;;;6.67;73.97
15670;BME280;18524;45.190;5.732;2023-03-03T08:04:28;99440.44;;;7.01;72.81
15670;BME280;18524;45.190;5.732;2023-03-03T08:09:35;99447.63;;;6.97;73.37
15670;BME280;18524;45.190;5.732;2023-03-03T08:14:30;99444.00;;;7.14;72.09
15670;BME280;18524;45.190;5.732;2023-03-03T08:19:21;99441.94;;;7.05;71.82
15670;BME280;18524;45.190;5.732;2023-03-03T08:24:12;99442.97;;;7.02;71.73
15670;BME280;18524;45.190;5.732;2023-03-03T08:29:02;99441.38;;;7.00;71.97
15670;BME280;18524;45.190;5.732;2023-03-03T08:33:53;99442.03;;;7.03;71.73
15670;BME280;18524;45.190;5.732;2023-03-03T08:38:43;99442.69;;;6.93;72.24
15670;BME280;18524;45.190;5.732;2023-03-03T08:43:33;99436.34;;;7.25;70.72
15670;BME280;18524;45.190;5.732;2023-03-03T08:48:25;99441.53;;;7.39;69.88
15670;BME280;18524;45.190;5.732;2023-03-03T08:53:17;99445.06;;;7.38;69.95
15670;BME280;18524;45.190;5.732;2023-03-03T08:58:08;99446.25;;;7.61;68.85
15670;BME280;18524;45.190;5.732;2023-03-03T09:02:58;99446.75;;;7.53;68.82
15670;BME280;18524;45.190;5.732;2023-03-03T09:07:50;99450.38;;;7.51;69.35
15670;BME280;18524;45.190;5.732;2023-03-03T09:12:45;99449.63;;;7.76;68.28
15670;BME280;18524;45.190;5.732;2023-03-03T09:17:39;99450.66;;;7.88;67.86
15670;BME280;18524;45.190;5.732;2023-03-03T09:22:35;99451.72;;;7.98;67.27
15670;BME280;18524;45.190;5.732;2023-03-03T09:27:29;99458.28;;;7.91;67.65
15670;BME280;18524;45.190;5.732;2023-03-03T09:32:30;99461.66;;;7.51;68.95
15670;BME280;18524;45.190;5.732;2023-03-03T09:37:29;99466.03;;;7.78;67.19
15670;BME280;18524;45.190;5.732;2023-03-03T09:52:45;99468.88;;;8.02;66.30
15670;BME280;18524;45.190;5.732;2023-03-03T10:02:59;99467.94;;;8.15;66.91
15670;BME280;18524;45.190;5.732;2023-03-03T10:18:02;99471.59;;;8.40;65.35
15670;BME280;18524;45.190;5.732;2023-03-03T10:23:18;99477.66;;;8.40;65.92
15670;BME280;18524;45.190;5.732;2023-03-03T10:38:43;99479.88;;;8.34;65.54
15670;BME280;18524;45.190;5.732;2023-03-03T10:48:44;99470.81;;;8.77;64.84
15670;BME280;18524;45.190;5.732;2023-03-03T10:53:51;99465.16;;;8.84;63.94
15670;BME280;18524;45.190;5.732;2023-03-03T11:08:54;99455.56;;;9.83;60.75
15670;BME280;18524;45.190;5.732;2023-03-03T11:19:04;99443.06;;;10.34;59.11
15670;BME280;18524;45.190;5.732;2023-03-03T11:39:17;99421.56;;;11.31;54.70
15670;BME280;18524;45.190;5.732;2023-03-03T11:50:04;99404.28;;;11.72;52.58
15670;BME280;18524;45.190;5.732;2023-03-03T12:15:35;99389.84;;;12.51;50.48
15670;BME280;18524;45.190;5.732;2023-03-03T12:26:04;99382.41;;;12.56;50.15
15670;BME280;18524;45.190;5.732;2023-03-03T12:31:14;99367.50;;;12.66;49.90
15670;BME280;18524;45.190;5.732;2023-03-03T12:52:01;99355.28;;;12.96;48.89
15670;BME280;18524;45.190;5.732;2023-03-03T12:57:04;99366.34;;;12.90;48.22
15670;BME280;18524;45.190;5.732;2023-03-03T13:07:09;99353.03;;;12.81;47.79
15670;BME280;18524;45.190;5.732;2023-03-03T13:17:22;99353.88;;;12.31;49.17
15670;BME280;18524;45.190;5.732;2023-03-03T13:27:19;99356.81;;;12.16;49.61
15670;BME280;18524;45.190;5.732;2023-03-03T13:32:19;99361.88;;;11.76;50.78
15670;BME280;18524;45.190;5.732;2023-03-03T13:42:24;99355.66;;;11.77;52.01
15670;BME280;18524;45.190;5.732;2023-03-03T13:52:31;99344.78;;;11.93;51.11
15670;BME280;18524;45.190;5.732;2023-03-03T13:57:24;99348.97;;;11.84;51.37
15670;BME280;18524;45.190;5.732;2023-03-03T14:07:53;99353.97;;;11.87;50.81
15670;BME280;18524;45.190;5.732;2023-03-03T14:23:01;99345.94;;;12.00;50.52
15670;BME280;18524;45.190;5.732;2023-03-03T14:28:04;99333.75;;;11.99;50.83
15670;BME280;18524;45.190;5.732;2023-03-03T14:42:59;99337.88;;;11.81;51.39
15670;BME280;18524;45.190;5.732;2023-03-03T14:47:51;99339.53;;;11.93;50.77
15670;BME280;18524;45.190;5.732;2023-03-03T14:52:42;99326.03;;;11.86;50.78
15670;BME280;18524;45.190;5.732;2023-03-03T14:57:41;99330.84;;;11.81;51.05
15670;BME280;18524;45.190;5.732;2023-03-03T15:03:02;99324.03;;;11.79;51.06
15670;BME280;18524;45.190;5.732;2023-03-03T15:12:54;99326.75;;;11.56;51.90
15670;BME280;18524;45.190;5.732;2023-03-03T15:33:15;99313.03;;;11.53;52.42
15670;BME280;18524;45.190;5.732;2023-03-03T15:38:12;99320.97;;;11.31;53.58
15670;BME280;18524;45.190;5.732;2023-03-03T15:43:27;99316.00;;;11.16;53.84
15670;BME280;18524;45.190;5.732;2023-03-03T15:49:00;99315.13;;;11.27;53.75
15670;BME280;18524;45.190;5.732;2023-03-03T16:03:58;99322.44;;;11.12;54.20
15670;BME280;18524;45.190;5.732;2023-03-03T16:19:12;99320.88;;;11.10;54.16
15670;BME280;18524;45.190;5.732;2023-03-03T16:34:59;99331.41;;;10.76;55.03
15670;BME280;18524;45.190;5.732;2023-03-03T16:40:02;99338.34;;;10.66;55.02
15670;BME280;18524;45.190;5.732;2023-03-03T16:50:24;99358.97;;;10.48;55.49
15670;BME280;18524;45.190;5.732;2023-03-03T16:55:20;99366.72;;;10.50;55.93
15670;BME280;18524;45.190;5.732;2023-03-03T17:00:26;99368.25;;;10.52;55.93
15670;BME280;18524;45.190;5.732;2023-03-03T17:25:58;99394.06;;;10.23;56.87
15670;BME280;18524;45.190;5.732;2023-03-03T17:31:09;99392.88;;;10.27;55.87
15670;BME280;18524;45.190;5.732;2023-03-03T17:36:29;99399.84;;;10.16;55.82
15670;BME280;18524;45.190;5.732;2023-03-03T17:41:33;99406.78;;;9.93;57.09
15670;BME280;18524;45.190;5.732;2023-03-03T17:46:38;99411.78;;;9.96;56.24
15670;BME280;18524;45.190;5.732;2023-03-03T18:12:37;99444.63;;;9.89;56.59
15670;BME280;18524;45.190;5.732;2023-03-03T18:28:22;99467.09;;;9.80;56.60
15670;BME280;18524;45.190;5.732;2023-03-03T18:33:15;99460.56;;;9.86;55.92
15670;BME280;18524;45.190;5.732;2023-03-03T18:43:39;99466.66;;;9.86;57.08
15670;BME280;18524;45.190;5.732;2023-03-03T18:49:06;99475.78;;;9.81;56.33
15670;BME280;18524;45.190;5.732;2023-03-03T18:54:24;99479.13;;;9.83;56.44
15670;BME280;18524;45.190;5.732;2023-03-03T19:04:24;99483.53;;;9.82;55.82
15670;BME280;18524;45.190;5.732;2023-03-03T19:09:20;99477.25;;;9.85;55.77
15670;BME280;18524;45.190;5.732;2023-03-03T19:14:31;99482.44;;;9.74;56.51
15670;BME280;18524;45.190;5.732;2023-03-03T19:19:32;99484.13;;;9.62;56.97
15670;BME280;18524;45.190;5.732;2023-03-03T19:24:28;99485.31;;;9.82;56.36
15670;BME280;18524;45.190;5.732;2023-03-03T19:34:44;99491.28;;;9.84;55.83
15670;BME280;18524;45.190;5.732;2023-03-03T19:45:10;99499.69;;;9.76;56.39
15670;BME280;18524;45.190;5.732;2023-03-03T20:11:35;99529.91;;;9.56;56.54
15670;BME280;18524;45.190;5.732;2023-03-03T20:16:40;99526.56;;;9.54;56.61
15670;BME280;18524;45.190;5.732;2023-03-03T20:21:34;99527.41;;;9.42;57.54
15670;BME280;18524;45.190;5.732;2023-03-03T20:26:59;99533.59;;;9.41;57.19
15670;BME280;18524;45.190;5.732;2023-03-03T20:37:03;99534.44;;;9.42;58.05
15670;BME280;18524;45.190;5.732;2023-03-03T20:42:30;99550.47;;;9.37;57.38
15670;BME280;18524;45.190;5.732;2023-03-03T20:47:15;99547.19;;;9.46;57.34
15670;BME280;18524;45.190;5.732;2023-03-03T20:52:21;99549.28;;;9.54;57.03
15670;BME280;18524;45.190;5.732;2023-03-03T21:02:45;99554.88;;;9.36;57.56
15670;BME280;18524;45.190;5.732;2023-03-03T21:07:37;99558.69;;;9.56;56.97
15670;BME280;18524;45.190;5.732;2023-03-03T21:12:38;99568.97;;;9.59;56.76
15670;BME280;18524;45.190;5.732;2023-03-03T21:17:30;99565.09;;;9.52;56.89
15670;BME280;18524;45.190;5.732;2023-03-03T21:22:20;99561.56;;;9.40;57.07
15670;BME280;18524;45.190;5.732;2023-03-03T21:27:27;99557.69;;;9.46;57.31
15670;BME280;18524;45.190;5.732;2023-03-03T21:37:55;99562.88;;;9.59;57.48
15670;BME280;18524;45.190;5.732;2023-03-03T21:42:45;99567.31;;;9.46;57.90
15670;BME280;18524;45.190;5.732;2023-03-03T21:47:36;99564.81;;;9.44;57.96
15670;BME280;18524;45.190;5.732;2023-03-03T21:52:26;99570.47;;;9.38;57.96
15670;BME280;18524;45.190;5.732;2023-03-03T21:57:17;99574.03;;;9.37;58.20
15670;BME280;18524;45.190;5.732;2023-03-03T22:02:07;99572.13;;;9.39;57.58
15670;BME280;18524;45.190;5.732;2023-03-03T22:06:58;99574.31;;;9.45;57.94
15670;BME280;18524;45.190;5.732;2023-03-03T22:11:48;99569.72;;;9.36;58.69
15670;BME280;18524;45.190;5.732;2023-03-03T22:16:39;99571.06;;;9.54;58.53
15670;BME280;18524;45.190;5.732;2023-03-03T22:21:30;99571.16;;;9.65;58.15
15670;BME280;18524;45.190;5.732;2023-03-03T22:26:20;99576.09;;;9.70;58.04
15670;BME280;18524;45.190;5.732;2023-03-03T22:31:11;99575.47;;;9.66;59.16
15670;BME280;18524;45.190;5.732;2023-03-03T22:36:01;99572.00;;;9.53;58.56
15670;BME280;18524;45.190;5.732;2023-03-03T22:40:52;99583.63;;;9.62;58.33
15670;BME280;18524;45.190;5.732;2023-03-03T22:45:43;99586.97;;;9.64;58.16
15670;BME280;18524;45.190;5.732;2023-03-03T22:50:34;99586.78;;;9.67;58.29
15670;BME280;18524;45.190;5.732;2023-03-03T22:55:28;99586.56;;;9.70;57.55
15670;BME280;18524;45.190;5.732;2023-03-03T23:00:19;99587.91;;;9.63;58.02
15670;BME280;18524;45.190;5.732;2023-03-03T23:05:10;99588.84;;;9.62;57.53
15670;BME280;18524;45.190;5.732;2023-03-03T23:10:01;99593.06;;;9.52;57.48
15670;BME280;18524;45.190;5.732;2023-03-03T23:14:52;99590.56;;;9.50;58.47
15670;BME280;18524;45.190;5.732;2023-03-03T23:19:43;99594.13;;;9.49;57.69
15670;BME280;18524;45.190;5.732;2023-03-03T23:24:35;99592.44;;;9.48;57.86
15670;BME280;18524;45.190;5.732;2023-03-03T23:29:25;99596.41;;;9.28;58.83
15670;BME280;18524;45.190;5.732;2023-03-03T23:34:16;99597.78;;;9.34;58.90
15670;BME280;18524;45.190;5.732;2023-03-03T23:39:06;99592.56;;;9.34;58.74
15670;BME280;18524;45.190;5.732;2023-03-03T23:43:56;99589.94;;;9.34;58.56
15670;BME280;18524;45.190;5.732;2023-03-03T23:48:47;99593.50;;;9.33;58.09
15670;BME280;18524;45.190;5.732;2023-03-03T23:53:37;99591.28;;;9.39;57.92
15670;BME280;18524;45.190;5.732;2023-03-03T23:58:27;99588.69;;;9.39;58.34
